sensor_id;sensor_type;location;lat;lon;timestamp;temperature;humidity
18103;DHT22;9178;51.120;6.192;2023-04-10T00:01:55;7.80;99.90
18103;DHT22;9178;51.120;6.192;2023-04-10T00:04:22;7.80;99.90
18103;DHT22;9178;51.120;6.192;2023-04-10T00:06:49;7.70;99.90
18103;DHT22;9178;51.120;6.192;2023-04-10T00:09:16;7.70;99.90
18103;DHT22;9178;51.120;6.192;2023-04-10T00:11:43;7.60;99.90
18103;DHT22;9178;51.120;6.192;2023-04-10T00:14:11;7.60;99.90
18103;DHT22;9178;51.120;6.192;2023-04-10T00:16:38;7.60;99.90
18103;DHT22;9178;51.120;6.192;2023-04-10T00:19:05;7.60;99.90
18103;DHT22;9178;51.120;6.192;2023-04-10T00:21:32;7.60;99.90
18103;DHT22;9178;51.120;6.192;2023-04-10T00:23:59;7.60;99.90
18103;DHT22;9178;51.120;6.192;2023-04-10T00:26:26;7.50;99.90
18103;DHT22;9178;51.120;6.192;2023-04-10T00:28:53;7.50;99.90
18103;DHT22;9178;51.120;6.192;2023-04-10T00:31:21;7.50;99.90
18103;DHT22;9178;51.120;6.192;2023-04-10T00:33:48;7.40;99.90
18103;DHT22;9178;51.120;6.192;2023-04-10T00:36:14;7.50;99.90
18103;DHT22;9178;51.120;6.192;2023-04-10T00:38:41;7.50;99.90
18103;DHT22;9178;51.120;6.192;2023-04-10T00:41:08;7.50;99.90
18103;DHT22;9178;51.120;6.192;2023-04-10T00:43:35;7.50;99.90
18103;DHT22;9178;51.120;6.192;2023-04-10T00:46:03;7.50;99.90
18103;DHT22;9178;51.120;6.192;2023-04-10T00:48:32;7.50;99.90
18103;DHT22;9178;51.120;6.192;2023-04-10T00:50:59;7.40;99.90
18103;DHT22;9178;51.120;6.192;2023-04-10T00:53:27;7.40;99.90
18103;DHT22;9178;51.120;6.192;2023-04-10T00:55:55;7.40;99.90
18103;DHT22;9178;51.120;6.192;2023-04-10T00:58:22;7.40;99.90
18103;DHT22;9178;51.120;6.192;2023-04-10T01:00:50;7.40;99.90
18103;DHT22;9178;51.120;6.192;2023-04-10T01:03:18;7.40;99.90
18103;DHT22;9178;51.120;6.192;2023-04-10T01:06:02;7.40;99.90
18103;DHT22;9178;51.120;6.192;2023-04-10T01:08:38;7.40;99.90
18103;DHT22;9178;51.120;6.192;2023-04-10T01:11:12;7.40;99.90
18103;DHT22;9178;51.120;6.192;2023-04-10T01:13:52;7.40;99.90
18103;DHT22;9178;51.120;6.192;2023-04-10T01:16:25;7.40;99.90
18103;DHT22;9178;51.120;6.192;2023-04-10T01:18:58;7.40;99.90
18103;DHT22;9178;51.120;6.192;2023-04-10T01:21:30;7.40;99.90
18103;DHT22;9178;51.120;6.192;2023-04-10T01:24:13;7.40;99.90
18103;DHT22;9178;51.120;6.192;2023-04-10T01:26:55;7.30;99.90
18103;DHT22;9178;51.120;6.192;2023-04-10T01:29:31;7.30;99.90
18103;DHT22;9178;51.120;6.192;2023-04-10T01:32:01;7.30;99.90
18103;DHT22;9178;51.120;6.192;2023-04-10T01:34:33;7.20;99.90
18103;DHT22;9178;51.120;6.192;2023-04-10T01:37:03;7.20;99.90
18103;DHT22;9178;51.120;6.192;2023-04-10T01:39:34;7.20;99.90
18103;DHT22;9178;51.120;6.192;2023-04-10T01:42:02;7.20;99.90
18103;DHT22;9178;51.120;6.192;2023-04-10T01:44:33;7.20;99.90
18103;DHT22;9178;51.120;6.192;2023-04-10T01:47:04;7.20;99.90
18103;DHT22;9178;51.120;6.192;2023-04-10T01:49:33;7.10;99.90
18103;DHT22;9178;51.120;6.192;2023-04-10T01:52:02;7.10;99.90
18103;DHT22;9178;51.120;6.192;2023-04-10T01:54:31;7.10;99.90
18103;DHT22;9178;51.120;6.192;2023-04-10T01:56:59;7.10;99.90
18103;DHT22;9178;51.120;6.192;2023-04-10T01:59:26;7.10;99.90
18103;DHT22;9178;51.120;6.192;2023-04-10T02:01:56;7.10;99.90
18103;DHT22;9178;51.120;6.192;2023-04-10T02:04:23;7.00;99.90
18103;DHT22;9178;51.120;6.192;2023-04-10T02:07:02;7.00;99.90
18103;DHT22;9178;51.120;6.192;2023-04-10T02:09:36;7.00;99.90
18103;DHT22;9178;51.120;6.192;2023-04-10T02:12:06;7.00;99.90
18103;DHT22;9178;51.120;6.192;2023-04-10T02:14:37;7.00;99.90
18103;DHT22;9178;51.120;6.192;2023-04-10T02:17:07;7.00;99.90
18103;DHT22;9178;51.120;6.192;2023-04-10T02:19:36;6.90;99.90
18103;DHT22;9178;51.120;6.192;2023-04-10T02:22:04;6.90;99.90
18103;DHT22;9178;51.120;6.192;2023-04-10T02:24:31;6.90;99.90
18103;DHT22;9178;51.120;6.192;2023-04-10T02:26:59;6.90;99.90
18103;DHT22;9178;51.120;6.192;2023-04-10T02:29:26;6.80;99.90
18103;DHT22;9178;51.120;6.192;2023-04-10T02:31:53;6.80;99.90
18103;DHT22;9178;51.120;6.192;2023-04-10T02:34:21;6.80;99.90
18103;DHT22;9178;51.120;6.192;2023-04-10T02:36:47;6.80;99.90
18103;DHT22;9178;51.120;6.192;2023-04-10T02:39:14;6.80;99.90
18103;DHT22;9178;51.120;6.192;2023-04-10T02:41:41;6.70;99.90
18103;DHT22;9178;51.120;6.192;2023-04-10T02:44:08;6.70;99.90
18103;DHT22;9178;51.120;6.192;2023-04-10T02:46:35;6.70;99.90
18103;DHT22;9178;51.120;6.192;2023-04-10T02:49:02;6.70;99.90
18103;DHT22;9178;51.120;6.192;2023-04-10T02:51:33;6.70;99.90
18103;DHT22;9178;51.120;6.192;2023-04-10T02:54:01;6.60;99.90
18103;DHT22;9178;51.120;6.192;2023-04-10T02:56:27;6.60;99.90
18103;DHT22;9178;51.120;6.192;2023-04-10T02:58:54;6.60;99.90
18103;DHT22;9178;51.120;6.192;2023-04-10T03:01:22;6.60;99.90
18103;DHT22;9178;51.120;6.192;2023-04-10T03:03:50;6.60;99.90
18103;DHT22;9178;51.120;6.192;2023-04-10T03:06:16;6.60;99.90
18103;DHT22;9178;51.120;6.192;2023-04-10T03:08:45;6.60;99.90
18103;DHT22;9178;51.120;6.192;2023-04-10T03:11:11;6.60;99.90
18103;DHT22;9178;51.120;6.192;2023-04-10T03:13:38;6.60;99.90
18103;DHT22;9178;51.120;6.192;2023-04-10T03:16:06;6.50;99.90
18103;DHT22;9178;51.120;6.192;2023-04-10T03:18:33;6.50;99.90
18103;DHT22;9178;51.120;6.192;2023-04-10T03:21:00;6.50;99.90
18103;DHT22;9178;51.120;6.192;2023-04-10T03:23:27;6.50;99.90
18103;DHT22;9178;51.120;6.192;2023-04-10T03:25:55;6.50;99.90
18103;DHT22;9178;51.120;6.192;2023-04-10T03:28:22;6.50;99.90
18103;DHT22;9178;51.120;6.192;2023-04-10T03:30:50;6.40;99.90
18103;DHT22;9178;51.120;6.192;2023-04-10T03:33:17;6.40;99.90
18103;DHT22;9178;51.120;6.192;2023-04-10T03:35:45;6.40;99.90
18103;DHT22;9178;51.120;6.192;2023-04-10T03:38:12;6.40;99.90
18103;DHT22;9178;51.120;6.192;2023-04-10T03:40:39;6.40;99.90
18103;DHT22;9178;51.120;6.192;2023-04-10T03:43:07;6.30;99.90
18103;DHT22;9178;51.120;6.192;2023-04-10T03:45:34;6.30;99.90
18103;DHT22;9178;51.120;6.192;2023-04-10T03:48:01;6.20;99.90
18103;DHT22;9178;51.120;6.192;2023-04-10T03:50:27;6.20;99.90
18103;DHT22;9178;51.120;6.192;2023-04-10T03:52:55;6.20;99.90
18103;DHT22;9178;51.120;6.192;2023-04-10T03:55:21;6.20;99.90
18103;DHT22;9178;51.120;6.192;2023-04-10T03:57:48;6.20;99.90
18103;DHT22;9178;51.120;6.192;2023-04-10T04:00:19;6.10;99.90
18103;DHT22;9178;51.120;6.192;2023-04-10T04:02:46;6.20;99.90
18103;DHT22;9178;51.120;6.192;2023-04-10T04:05:15;6.10;99.90
18103;DHT22;9178;51.120;6.192;2023-04-10T04:07:41;6.10;99.90
18103;DHT22;9178;51.120;6.192;2023-04-10T04:10:08;6.10;99.90
18103;DHT22;9178;51.120;6.192;2023-04-10T04:12:35;6.10;99.90
18103;DHT22;9178;51.120;6.192;2023-04-10T04:15:02;6.10;99.90
18103;DHT22;9178;51.120;6.192;2023-04-10T04:17:31;6.00;99.90
18103;DHT22;9178;51.120;6.192;2023-04-10T04:19:58;6.00;99.90
18103;DHT22;9178;51.120;6.192;2023-04-10T04:22:24;6.00;99.90
18103;DHT22;9178;51.120;6.192;2023-04-10T04:24:51;6.00;99.90
18103;DHT22;9178;51.120;6.192;2023-04-10T04:27:18;5.90;99.90
18103;DHT22;9178;51.120;6.192;2023-04-10T04:29:46;6.00;99.90
18103;DHT22;9178;51.120;6.192;2023-04-10T04:32:13;6.00;99.90
18103;DHT22;9178;51.120;6.192;2023-04-10T04:34:41;5.90;99.90
18103;DHT22;9178;51.120;6.192;2023-04-10T04:37:08;5.90;99.90
18103;DHT22;9178;51.120;6.192;2023-04-10T04:39:35;5.90;99.90
18103;DHT22;9178;51.120;6.192;2023-04-10T04:42:02;5.90;99.90
18103;DHT22;9178;51.120;6.192;2023-04-10T04:44:28;5.90;99.90
18103;DHT22;9178;51.120;6.192;2023-04-10T04:46:55;5.80;99.90
18103;DHT22;9178;51.120;6.192;2023-04-10T04:49:22;5.80;99.90
18103;DHT22;9178;51.120;6.192;2023-04-10T04:51:50;5.80;99.90
18103;DHT22;9178;51.120;6.192;2023-04-10T04:54:17;5.80;99.90
18103;DHT22;9178;51.120;6.192;2023-04-10T04:56:44;5.80;99.90
18103;DHT22;9178;51.120;6.192;2023-04-10T04:59:11;5.80;99.90
18103;DHT22;9178;51.120;6.192;2023-04-10T05:01:38;5.80;99.90
18103;DHT22;9178;51.120;6.192;2023-04-10T05:04:05;5.80;99.90
18103;DHT22;9178;51.120;6.192;2023-04-10T05:06:32;5.90;99.90
18103;DHT22;9178;51.120;6.192;2023-04-10T05:09:00;5.90;99.90
18103;DHT22;9178;51.120;6.192;2023-04-10T05:11:27;5.90;99.90
18103;DHT22;9178;51.120;6.192;2023-04-10T05:13:53;5.90;99.90
18103;DHT22;9178;51.120;6.192;2023-04-10T05:16:20;5.90;99.90
18103;DHT22;9178;51.120;6.192;2023-04-10T05:18:47;5.90;99.90
18103;DHT22;9178;51.120;6.192;2023-04-10T05:21:14;5.90;99.90
18103;DHT22;9178;51.120;6.192;2023-04-10T05:23:41;5.90;99.90
18103;DHT22;9178;51.120;6.192;2023-04-10T05:26:09;5.90;99.90
18103;DHT22;9178;51.120;6.192;2023-04-10T05:28:36;5.90;99.90
18103;DHT22;9178;51.120;6.192;2023-04-10T05:31:03;5.90;99.90
18103;DHT22;9178;51.120;6.192;2023-04-10T05:33:30;6.00;99.90
18103;DHT22;9178;51.120;6.192;2023-04-10T05:35:57;6.00;99.90
18103;DHT22;9178;51.120;6.192;2023-04-10T05:38:24;6.10;99.90
18103;DHT22;9178;51.120;6.192;2023-04-10T05:40:50;6.10;99.90
18103;DHT22;9178;51.120;6.192;2023-04-10T05:43:19;6.20;99.90
18103;DHT22;9178;51.120;6.192;2023-04-10T05:45:46;6.30;99.90
18103;DHT22;9178;51.120;6.192;2023-04-10T05:48:13;6.40;99.90
18103;DHT22;9178;51.120;6.192;2023-04-10T05:50:40;6.50;99.90
18103;DHT22;9178;51.120;6.192;2023-04-10T05:53:11;6.70;99.90
18103;DHT22;9178;51.120;6.192;2023-04-10T05:55:38;6.80;99.90
18103;DHT22;9178;51.120;6.192;2023-04-10T05:58:04;6.90;99.90
18103;DHT22;9178;51.120;6.192;2023-04-10T06:00:33;7.00;99.90
18103;DHT22;9178;51.120;6.192;2023-04-10T06:02:59;7.10;99.90
18103;DHT22;9178;51.120;6.192;2023-04-10T06:05:27;7.30;99.90
18103;DHT22;9178;51.120;6.192;2023-04-10T06:07:54;7.40;99.90
18103;DHT22;9178;51.120;6.192;2023-04-10T06:10:21;7.60;99.90
18103;DHT22;9178;51.120;6.192;2023-04-10T06:12:47;7.80;99.90
18103;DHT22;9178;51.120;6.192;2023-04-10T06:15:15;8.00;99.90
18103;DHT22;9178;51.120;6.192;2023-04-10T06:17:43;8.20;99.90
18103;DHT22;9178;51.120;6.192;2023-04-10T06:20:10;8.20;99.90
18103;DHT22;9178;51.120;6.192;2023-04-10T06:22:37;8.30;99.90
18103;DHT22;9178;51.120;6.192;2023-04-10T06:25:05;8.40;99.90
18103;DHT22;9178;51.120;6.192;2023-04-10T06:27:32;8.60;99.90
18103;DHT22;9178;51.120;6.192;2023-04-10T06:30:00;8.60;99.90
18103;DHT22;9178;51.120;6.192;2023-04-10T06:32:26;8.70;99.90
18103;DHT22;9178;51.120;6.192;2023-04-10T06:34:55;8.80;99.90
18103;DHT22;9178;51.120;6.192;2023-04-10T06:37:27;8.90;99.90
18103;DHT22;9178;51.120;6.192;2023-04-10T06:40:02;9.10;99.90
18103;DHT22;9178;51.120;6.192;2023-04-10T06:42:29;9.10;99.90
18103;DHT22;9178;51.120;6.192;2023-04-10T06:44:56;9.20;99.90
18103;DHT22;9178;51.120;6.192;2023-04-10T06:47:23;9.20;99.90
18103;DHT22;9178;51.120;6.192;2023-04-10T06:49:50;9.30;99.90
18103;DHT22;9178;51.120;6.192;2023-04-10T06:52:18;9.30;99.90
18103;DHT22;9178;51.120;6.192;2023-04-10T06:54:45;9.30;99.90
18103;DHT22;9178;51.120;6.192;2023-04-10T06:57:11;9.40;99.90
18103;DHT22;9178;51.120;6.192;2023-04-10T06:59:38;9.50;99.90
18103;DHT22;9178;51.120;6.192;2023-04-10T07:02:05;9.50;99.90
18103;DHT22;9178;51.120;6.192;2023-04-10T07:04:33;9.60;99.90
18103;DHT22;9178;51.120;6.192;2023-04-10T07:06:59;9.80;99.90
18103;DHT22;9178;51.120;6.192;2023-04-10T07:09:28;9.90;99.90
18103;DHT22;9178;51.120;6.192;2023-04-10T07:11:56;10.10;99.90
18103;DHT22;9178;51.120;6.192;2023-04-10T07:14:22;10.10;99.90
18103;DHT22;9178;51.120;6.192;2023-04-10T07:16:49;10.30;99.90
18103;DHT22;9178;51.120;6.192;2023-04-10T07:19:18;10.40;99.90
18103;DHT22;9178;51.120;6.192;2023-04-10T07:21:45;10.50;99.90
18103;DHT22;9178;51.120;6.192;2023-04-10T07:24:14;10.60;99.90
18103;DHT22;9178;51.120;6.192;2023-04-10T07:26:42;10.80;99.90
18103;DHT22;9178;51.120;6.192;2023-04-10T07:29:10;10.80;99.90
18103;DHT22;9178;51.120;6.192;2023-04-10T07:31:36;11.00;99.90
18103;DHT22;9178;51.120;6.192;2023-04-10T07:34:03;11.10;99.90
18103;DHT22;9178;51.120;6.192;2023-04-10T07:36:30;11.30;99.90
18103;DHT22;9178;51.120;6.192;2023-04-10T07:38:58;11.50;99.90
18103;DHT22;9178;51.120;6.192;2023-04-10T07:41:24;11.70;99.90
18103;DHT22;9178;51.120;6.192;2023-04-10T07:43:53;11.90;99.90
18103;DHT22;9178;51.120;6.192;2023-04-10T07:46:20;12.00;99.90
18103;DHT22;9178;51.120;6.192;2023-04-10T07:48:46;12.20;99.90
18103;DHT22;9178;51.120;6.192;2023-04-10T07:51:14;12.20;99.90
18103;DHT22;9178;51.120;6.192;2023-04-10T07:53:41;12.30;99.90
18103;DHT22;9178;51.120;6.192;2023-04-10T07:56:14;12.40;99.90
18103;DHT22;9178;51.120;6.192;2023-04-10T07:58:41;12.50;99.90
18103;DHT22;9178;51.120;6.192;2023-04-10T08:01:09;12.60;99.90
18103;DHT22;9178;51.120;6.192;2023-04-10T08:03:37;12.60;99.90
18103;DHT22;9178;51.120;6.192;2023-04-10T08:06:05;12.60;99.90
18103;DHT22;9178;51.120;6.192;2023-04-10T08:08:34;12.60;99.90
18103;DHT22;9178;51.120;6.192;2023-04-10T08:11:01;12.50;99.90
18103;DHT22;9178;51.120;6.192;2023-04-10T08:13:28;12.50;99.90
18103;DHT22;9178;51.120;6.192;2023-04-10T08:15:54;12.60;99.90
18103;DHT22;9178;51.120;6.192;2023-04-10T08:18:23;12.60;99.90
18103;DHT22;9178;51.120;6.192;2023-04-10T08:20:50;12.60;99.90
18103;DHT22;9178;51.120;6.192;2023-04-10T08:23:16;12.60;99.90
18103;DHT22;9178;51.120;6.192;2023-04-10T08:25:43;12.80;99.90
18103;DHT22;9178;51.120;6.192;2023-04-10T08:28:10;13.00;99.90
18103;DHT22;9178;51.120;6.192;2023-04-10T08:30:37;13.10;99.90
18103;DHT22;9178;51.120;6.192;2023-04-10T08:33:04;13.20;99.90
18103;DHT22;9178;51.120;6.192;2023-04-10T08:35:35;13.30;99.90
18103;DHT22;9178;51.120;6.192;2023-04-10T08:38:02;13.30;99.90
18103;DHT22;9178;51.120;6.192;2023-04-10T08:40:29;13.50;99.90
18103;DHT22;9178;51.120;6.192;2023-04-10T08:42:56;13.70;99.90
18103;DHT22;9178;51.120;6.192;2023-04-10T08:45:22;14.00;99.90
18103;DHT22;9178;51.120;6.192;2023-04-10T08:47:50;14.10;99.90
18103;DHT22;9178;51.120;6.192;2023-04-10T08:50:18;14.30;99.90
18103;DHT22;9178;51.120;6.192;2023-04-10T08:52:50;14.60;99.90
18103;DHT22;9178;51.120;6.192;2023-04-10T08:55:18;14.80;99.90
18103;DHT22;9178;51.120;6.192;2023-04-10T08:57:46;15.00;99.90
18103;DHT22;9178;51.120;6.192;2023-04-10T09:00:14;15.10;99.90
18103;DHT22;9178;51.120;6.192;2023-04-10T09:02:40;15.10;99.90
18103;DHT22;9178;51.120;6.192;2023-04-10T09:05:10;15.30;99.90
18103;DHT22;9178;51.120;6.192;2023-04-10T09:07:38;15.30;99.90
18103;DHT22;9178;51.120;6.192;2023-04-10T09:10:07;15.40;99.90
18103;DHT22;9178;51.120;6.192;2023-04-10T09:12:44;15.30;99.90
18103;DHT22;9178;51.120;6.192;2023-04-10T09:15:12;15.40;99.90
18103;DHT22;9178;51.120;6.192;2023-04-10T09:17:54;15.40;99.90
18103;DHT22;9178;51.120;6.192;2023-04-10T09:20:23;15.50;99.90
18103;DHT22;9178;51.120;6.192;2023-04-10T09:22:50;15.60;99.90
18103;DHT22;9178;51.120;6.192;2023-04-10T09:25:32;15.60;99.90
18103;DHT22;9178;51.120;6.192;2023-04-10T09:28:01;15.60;99.90
18103;DHT22;9178;51.120;6.192;2023-04-10T09:30:33;15.80;99.90
18103;DHT22;9178;51.120;6.192;2023-04-10T09:33:01;15.80;99.90
18103;DHT22;9178;51.120;6.192;2023-04-10T09:35:37;15.70;99.90
18103;DHT22;9178;51.120;6.192;2023-04-10T09:38:14;15.70;99.90
18103;DHT22;9178;51.120;6.192;2023-04-10T09:40:43;15.90;99.90
18103;DHT22;9178;51.120;6.192;2023-04-10T09:43:18;16.10;99.90
18103;DHT22;9178;51.120;6.192;2023-04-10T09:45:49;16.30;99.90
18103;DHT22;9178;51.120;6.192;2023-04-10T09:48:17;16.40;99.90
18103;DHT22;9178;51.120;6.192;2023-04-10T09:50:44;16.40;99.90
18103;DHT22;9178;51.120;6.192;2023-04-10T09:53:13;16.40;99.90
18103;DHT22;9178;51.120;6.192;2023-04-10T09:55:42;16.60;99.90
18103;DHT22;9178;51.120;6.192;2023-04-10T09:58:10;16.60;99.90
18103;DHT22;9178;51.120;6.192;2023-04-10T10:00:40;16.60;99.90
18103;DHT22;9178;51.120;6.192;2023-04-10T10:03:09;16.80;99.90
18103;DHT22;9178;51.120;6.192;2023-04-10T10:05:40;16.90;99.90
18103;DHT22;9178;51.120;6.192;2023-04-10T10:08:09;17.00;99.90
18103;DHT22;9178;51.120;6.192;2023-04-10T10:10:39;17.00;99.90
18103;DHT22;9178;51.120;6.192;2023-04-10T10:13:09;17.10;99.90
18103;DHT22;9178;51.120;6.192;2023-04-10T10:15:42;17.20;99.90
18103;DHT22;9178;51.120;6.192;2023-04-10T10:18:16;17.30;99.90
18103;DHT22;9178;51.120;6.192;2023-04-10T10:20:46;17.30;99.90
18103;DHT22;9178;51.120;6.192;2023-04-10T10:23:14;17.40;99.90
18103;DHT22;9178;51.120;6.192;2023-04-10T10:25:44;17.50;99.90
18103;DHT22;9178;51.120;6.192;2023-04-10T10:28:13;17.40;99.90
18103;DHT22;9178;51.120;6.192;2023-04-10T10:30:40;17.30;99.90
18103;DHT22;9178;51.120;6.192;2023-04-10T10:33:07;17.30;99.90
18103;DHT22;9178;51.120;6.192;2023-04-10T10:35:38;17.30;99.90
18103;DHT22;9178;51.120;6.192;2023-04-10T10:38:06;17.30;99.90
18103;DHT22;9178;51.120;6.192;2023-04-10T10:40:40;17.30;99.90
18103;DHT22;9178;51.120;6.192;2023-04-10T10:43:15;17.50;99.90
18103;DHT22;9178;51.120;6.192;2023-04-10T10:45:59;17.50;99.90
18103;DHT22;9178;51.120;6.192;2023-04-10T10:48:30;17.50;99.90
18103;DHT22;9178;51.120;6.192;2023-04-10T10:50:58;17.60;99.90
18103;DHT22;9178;51.120;6.192;2023-04-10T10:53:36;17.70;99.90
18103;DHT22;9178;51.120;6.192;2023-04-10T10:56:33;17.70;99.90
18103;DHT22;9178;51.120;6.192;2023-04-10T10:59:02;17.70;99.90
18103;DHT22;9178;51.120;6.192;2023-04-10T11:01:28;17.60;99.90
18103;DHT22;9178;51.120;6.192;2023-04-10T11:03:55;17.70;99.90
18103;DHT22;9178;51.120;6.192;2023-04-10T11:06:48;17.60;99.90
18103;DHT22;9178;51.120;6.192;2023-04-10T11:09:44;17.70;99.90
18103;DHT22;9178;51.120;6.192;2023-04-10T11:12:13;17.80;99.90
18103;DHT22;9178;51.120;6.192;2023-04-10T11:14:42;18.00;99.90
18103;DHT22;9178;51.120;6.192;2023-04-10T11:17:10;18.20;99.90
18103;DHT22;9178;51.120;6.192;2023-04-10T11:19:56;18.20;99.90
18103;DHT22;9178;51.120;6.192;2023-04-10T11:22:24;18.30;99.90
18103;DHT22;9178;51.120;6.192;2023-04-10T11:24:57;18.40;99.90
18103;DHT22;9178;51.120;6.192;2023-04-10T11:27:40;18.40;98.80
18103;DHT22;9178;51.120;6.192;2023-04-10T11:30:27;18.30;98.60
18103;DHT22;9178;51.120;6.192;2023-04-10T11:32:54;18.30;99.30
18103;DHT22;9178;51.120;6.192;2023-04-10T11:35:21;18.30;99.10
18103;DHT22;9178;51.120;6.192;2023-04-10T11:37:48;18.40;99.10
18103;DHT22;9178;51.120;6.192;2023-04-10T11:40:16;18.20;97.90
18103;DHT22;9178;51.120;6.192;2023-04-10T11:42:44;18.10;97.00
18103;DHT22;9178;51.120;6.192;2023-04-10T11:45:26;18.20;97.00
18103;DHT22;9178;51.120;6.192;2023-04-10T11:47:54;18.30;96.40
18103;DHT22;9178;51.120;6.192;2023-04-10T11:50:21;18.50;98.50
18103;DHT22;9178;51.120;6.192;2023-04-10T11:52:49;18.80;98.20
18103;DHT22;9178;51.120;6.192;2023-04-10T11:55:17;19.20;97.20
18103;DHT22;9178;51.120;6.192;2023-04-10T11:57:44;19.30;96.70
18103;DHT22;9178;51.120;6.192;2023-04-10T12:00:13;19.40;96.60
18103;DHT22;9178;51.120;6.192;2023-04-10T12:02:51;19.30;95.20
18103;DHT22;9178;51.120;6.192;2023-04-10T12:05:18;19.20;96.10
18103;DHT22;9178;51.120;6.192;2023-04-10T12:07:47;19.20;96.20
18103;DHT22;9178;51.120;6.192;2023-04-10T12:10:14;19.40;95.50
18103;DHT22;9178;51.120;6.192;2023-04-10T12:12:41;19.40;93.70
18103;DHT22;9178;51.120;6.192;2023-04-10T12:15:27;19.60;96.50
18103;DHT22;9178;51.120;6.192;2023-04-10T12:17:58;20.10;94.30
18103;DHT22;9178;51.120;6.192;2023-04-10T12:20:25;20.60;94.60
18103;DHT22;9178;51.120;6.192;2023-04-10T12:22:54;20.80;94.20
18103;DHT22;9178;51.120;6.192;2023-04-10T12:25:25;21.00;93.80
18103;DHT22;9178;51.120;6.192;2023-04-10T12:27:54;20.80;93.80
18103;DHT22;9178;51.120;6.192;2023-04-10T12:30:21;20.60;93.70
18103;DHT22;9178;51.120;6.192;2023-04-10T12:32:56;20.40;92.70
18103;DHT22;9178;51.120;6.192;2023-04-10T12:35:36;20.40;94.50
18103;DHT22;9178;51.120;6.192;2023-04-10T12:38:04;20.70;93.60
18103;DHT22;9178;51.120;6.192;2023-04-10T12:40:31;20.50;91.80
18103;DHT22;9178;51.120;6.192;2023-04-10T12:42:57;20.50;93.90
18103;DHT22;9178;51.120;6.192;2023-04-10T12:45:42;20.50;91.70
18103;DHT22;9178;51.120;6.192;2023-04-10T12:48:10;20.50;91.80
18103;DHT22;9178;51.120;6.192;2023-04-10T12:50:55;20.50;91.50
18103;DHT22;9178;51.120;6.192;2023-04-10T12:53:22;20.20;91.10
18103;DHT22;9178;51.120;6.192;2023-04-10T12:55:59;20.00;91.10
18103;DHT22;9178;51.120;6.192;2023-04-10T12:58:27;19.90;90.70
18103;DHT22;9178;51.120;6.192;2023-04-10T13:00:56;19.80;91.30
18103;DHT22;9178;51.120;6.192;2023-04-10T13:03:24;19.80;91.70
18103;DHT22;9178;51.120;6.192;2023-04-10T13:05:51;20.00;91.90
18103;DHT22;9178;51.120;6.192;2023-04-10T13:08:19;20.10;91.50
18103;DHT22;9178;51.120;6.192;2023-04-10T13:10:46;20.20;91.50
18103;DHT22;9178;51.120;6.192;2023-04-10T13:13:13;20.10;90.20
18103;DHT22;9178;51.120;6.192;2023-04-10T13:15:40;19.90;91.10
18103;DHT22;9178;51.120;6.192;2023-04-10T13:18:07;19.80;90.80
18103;DHT22;9178;51.120;6.192;2023-04-10T13:20:36;19.70;92.10
18103;DHT22;9178;51.120;6.192;2023-04-10T13:23:04;19.70;92.50
18103;DHT22;9178;51.120;6.192;2023-04-10T13:25:31;19.60;90.80
18103;DHT22;9178;51.120;6.192;2023-04-10T13:27:59;19.70;91.50
18103;DHT22;9178;51.120;6.192;2023-04-10T13:30:26;19.80;90.70
18103;DHT22;9178;51.120;6.192;2023-04-10T13:32:53;19.80;90.90
18103;DHT22;9178;51.120;6.192;2023-04-10T13:35:20;19.80;92.30
18103;DHT22;9178;51.120;6.192;2023-04-10T13:37:48;19.80;90.40
18103;DHT22;9178;51.120;6.192;2023-04-10T13:40:18;19.80;92.60
18103;DHT22;9178;51.120;6.192;2023-04-10T13:42:46;19.60;91.00
18103;DHT22;9178;51.120;6.192;2023-04-10T13:45:12;19.60;90.70
18103;DHT22;9178;51.120;6.192;2023-04-10T13:47:39;19.50;91.30
18103;DHT22;9178;51.120;6.192;2023-04-10T13:50:07;19.40;91.80
18103;DHT22;9178;51.120;6.192;2023-04-10T13:52:34;19.20;90.60
18103;DHT22;9178;51.120;6.192;2023-04-10T13:55:02;19.30;91.80
18103;DHT22;9178;51.120;6.192;2023-04-10T13:57:29;19.40;92.60
18103;DHT22;9178;51.120;6.192;2023-04-10T13:59:56;19.50;91.30
18103;DHT22;9178;51.120;6.192;2023-04-10T14:02:23;19.30;91.40
18103;DHT22;9178;51.120;6.192;2023-04-10T14:04:50;19.40;91.40
18103;DHT22;9178;51.120;6.192;2023-04-10T14:07:17;19.40;92.20
18103;DHT22;9178;51.120;6.192;2023-04-10T14:09:44;19.30;91.60
18103;DHT22;9178;51.120;6.192;2023-04-10T14:12:13;19.30;91.70
18103;DHT22;9178;51.120;6.192;2023-04-10T14:14:41;19.20;92.40
18103;DHT22;9178;51.120;6.192;2023-04-10T14:17:08;19.20;91.90
18103;DHT22;9178;51.120;6.192;2023-04-10T14:19:36;19.00;92.40
18103;DHT22;9178;51.120;6.192;2023-04-10T14:22:03;18.90;91.70
18103;DHT22;9178;51.120;6.192;2023-04-10T14:24:30;18.80;92.40
18103;DHT22;9178;51.120;6.192;2023-04-10T14:26:56;18.80;92.00
18103;DHT22;9178;51.120;6.192;2023-04-10T14:29:27;18.90;92.60
18103;DHT22;9178;51.120;6.192;2023-04-10T14:32:00;19.00;92.60
18103;DHT22;9178;51.120;6.192;2023-04-10T14:34:28;18.80;92.10
18103;DHT22;9178;51.120;6.192;2023-04-10T14:36:54;18.70;92.70
18103;DHT22;9178;51.120;6.192;2023-04-10T14:39:22;18.70;92.50
18103;DHT22;9178;51.120;6.192;2023-04-10T14:41:50;18.70;92.60
18103;DHT22;9178;51.120;6.192;2023-04-10T14:44:17;18.60;92.20
18103;DHT22;9178;51.120;6.192;2023-04-10T14:46:45;18.60;93.20
18103;DHT22;9178;51.120;6.192;2023-04-10T14:49:12;18.60;93.10
18103;DHT22;9178;51.120;6.192;2023-04-10T14:51:42;18.60;93.10
18103;DHT22;9178;51.120;6.192;2023-04-10T14:54:09;18.70;93.90
18103;DHT22;9178;51.120;6.192;2023-04-10T14:56:36;18.70;93.40
18103;DHT22;9178;51.120;6.192;2023-04-10T14:59:03;18.70;94.10
18103;DHT22;9178;51.120;6.192;2023-04-10T15:01:31;18.70;93.40
18103;DHT22;9178;51.120;6.192;2023-04-10T15:03:59;18.50;94.10
18103;DHT22;9178;51.120;6.192;2023-04-10T15:06:26;18.20;91.00
18103;DHT22;9178;51.120;6.192;2023-04-10T15:08:54;18.10;91.10
18103;DHT22;9178;51.120;6.192;2023-04-10T15:11:20;18.10;92.00
18103;DHT22;9178;51.120;6.192;2023-04-10T15:13:47;18.00;91.40
18103;DHT22;9178;51.120;6.192;2023-04-10T15:16:14;17.90;91.60
18103;DHT22;9178;51.120;6.192;2023-04-10T15:18:41;17.80;92.00
18103;DHT22;9178;51.120;6.192;2023-04-10T15:21:11;17.80;92.20
18103;DHT22;9178;51.120;6.192;2023-04-10T15:23:38;17.70;93.20
18103;DHT22;9178;51.120;6.192;2023-04-10T15:26:10;17.70;94.30
18103;DHT22;9178;51.120;6.192;2023-04-10T15:28:37;17.50;94.50
18103;DHT22;9178;51.120;6.192;2023-04-10T15:31:04;17.30;95.70
18103;DHT22;9178;51.120;6.192;2023-04-10T15:33:31;17.00;96.00
18103;DHT22;9178;51.120;6.192;2023-04-10T15:36:00;16.80;98.50
18103;DHT22;9178;51.120;6.192;2023-04-10T15:38:29;16.70;98.50
18103;DHT22;9178;51.120;6.192;2023-04-10T15:40:56;16.50;98.50
18103;DHT22;9178;51.120;6.192;2023-04-10T15:43:23;16.40;99.80
18103;DHT22;9178;51.120;6.192;2023-04-10T15:45:50;16.30;99.60
18103;DHT22;9178;51.120;6.192;2023-04-10T15:48:17;16.20;99.30
18103;DHT22;9178;51.120;6.192;2023-04-10T15:50:47;16.00;99.90
18103;DHT22;9178;51.120;6.192;2023-04-10T15:53:13;15.90;99.90
18103;DHT22;9178;51.120;6.192;2023-04-10T15:55:42;15.90;99.90
18103;DHT22;9178;51.120;6.192;2023-04-10T15:58:08;15.90;99.90
18103;DHT22;9178;51.120;6.192;2023-04-10T16:00:35;15.80;99.90
18103;DHT22;9178;51.120;6.192;2023-04-10T16:03:05;15.80;99.90